createdAt,value
2022-08-11T00:00:37.405Z,101085.53
2022-08-11T00:03:07.896Z,101088.63
2022-08-11T00:05:45.463Z,101082.47
2022-08-11T00:08:24.537Z,101089.44
2022-08-11T00:11:12.652Z,101093.66
2022-08-11T00:13:45.339Z,101093.38
2022-08-11T00:16:24.804Z,101087.56
2022-08-11T00:18:53.271Z,101094.38
2022-08-11T00:22:02.080Z,101087.50
2022-08-11T00:24:12.651Z,101087.50
2022-08-11T00:26:39.348Z,101088.63
2022-08-11T00:29:10.717Z,101087.03
2022-08-11T00:31:38.901Z,101092.03
2022-08-11T00:34:11.369Z,101096.38
2022-08-11T00:36:56.758Z,101092.50
2022-08-11T00:39:28.422Z,101089.28
2022-08-11T00:42:24.283Z,101089.63
2022-08-11T00:45:28.447Z,101088.09
2022-08-11T00:48:29.404Z,101091.94
2022-08-11T00:50:59.145Z,101091.66
2022-08-11T00:53:59.716Z,101099.41
2022-08-11T00:56:47.404Z,101095.09
2022-08-11T00:59:36.144Z,101091.09
2022-08-11T01:02:11.668Z,101089.00
2022-08-11T01:05:03.576Z,101085.63
2022-08-11T01:08:01.358Z,101088.34
2022-08-11T01:10:37.823Z,101087.63
2022-08-11T01:13:13.642Z,101089.22
2022-08-11T01:16:04.752Z,101094.69
2022-08-11T01:19:05.305Z,101088.72
2022-08-11T01:21:58.013Z,101088.47
2022-08-11T01:25:02.226Z,101084.09
2022-08-11T01:27:50.519Z,101088.63
2022-08-11T01:30:54.334Z,101087.03
2022-08-11T01:33:39.043Z,101094.78
2022-08-11T01:36:17.930Z,101090.91
2022-08-11T01:39:00.930Z,101092.03
2022-08-11T01:42:13.963Z,101090.91
2022-08-11T01:45:16.126Z,101098.16
2022-08-11T01:48:00.820Z,101099.16
2022-08-11T01:51:04.996Z,101100.28
2022-08-11T01:53:40.188Z,101109.00
2022-08-11T01:56:15.843Z,101112.41
2022-08-11T01:59:27.670Z,101109.06
2022-08-11T02:02:09.323Z,101113.41
2022-08-11T02:04:55.187Z,101121.94
2022-08-11T02:07:27.824Z,101119.38
2022-08-11T02:10:01.793Z,101125.47
2022-08-11T02:12:53.059Z,101119.38
2022-08-11T02:15:38.461Z,101113.44
2022-08-11T02:18:21.944Z,101109.25
2022-08-11T02:21:21.255Z,101121.94
2022-08-11T02:24:05.205Z,101114.41
2022-08-11T02:26:44.471Z,101117.44
2022-08-11T02:29:47.496Z,101112.16
2022-08-11T02:33:00.088Z,101107.00
2022-08-11T02:35:55.983Z,101100.41
2022-08-11T02:38:33.230Z,101097.66
2022-08-11T02:41:43.700Z,101102.03
2022-08-11T02:44:11.019Z,101096.75
2022-08-11T02:47:27.884Z,101093.34
2022-08-11T02:50:07.202Z,101091.91
2022-08-11T02:52:53.235Z,101095.63
2022-08-11T02:55:58.383Z,101094.47
2022-08-11T02:58:35.427Z,101096.59
2022-08-11T03:01:32.225Z,101098.19
2022-08-11T03:04:06.930Z,101100.91
2022-08-11T03:06:37.481Z,101096.59
2022-08-11T03:09:12.961Z,101099.63
2022-08-11T03:12:07.248Z,101103.97
2022-08-11T03:15:01.635Z,101101.91
2022-08-11T03:17:32.314Z,101103.94
2022-08-11T03:20:17.634Z,101106.50
2022-08-11T03:23:27.517Z,101097.22
2022-08-11T03:26:14.804Z,101098.50
2022-08-11T03:29:01.840Z,101097.34
2022-08-11T03:31:35.709Z,101096.56
2022-08-11T03:34:08.373Z,101108.63
2022-08-11T03:37:15.730Z,101102.66
2022-08-11T03:39:59.982Z,101106.34
2022-08-11T03:43:02.904Z,101100.75
2022-08-11T03:46:05.951Z,101110.03
2022-08-11T03:48:53.897Z,101104.44
2022-08-11T03:51:25.165Z,101113.25
2022-08-11T03:54:16.192Z,101116.44
2022-08-11T03:56:45.677Z,101110.00
2022-08-11T03:59:17.592Z,101110.50
2022-08-11T04:02:26.665Z,101110.97
2022-08-11T04:04:59.981Z,101120.75
2022-08-11T04:07:29.739Z,101111.28
2022-08-11T04:10:08.599Z,101110.31
2022-08-11T04:13:00.431Z,101112.22
2022-08-11T04:16:00.913Z,101118.16
2022-08-11T04:18:42.024Z,101120.22
2022-08-11T04:21:27.310Z,101116.69
2022-08-11T04:24:37.913Z,101107.38
2022-08-11T04:27:37.662Z,101105.56
2022-08-11T04:30:17.441Z,101115.34
2022-08-11T04:32:59.860Z,101114.84
2022-08-11T04:35:50.917Z,101112.94
2022-08-11T04:38:59.940Z,101119.31
2022-08-11T04:41:31.968Z,101122.78
2022-08-11T04:44:17.543Z,101121.97
2022-08-11T04:48:01.907Z,101124.13
2022-08-11T04:51:16.886Z,101123.19
2022-08-11T04:54:34.347Z,101119.66
2022-08-11T04:57:30.168Z,101129.25
2022-08-11T05:00:26.570Z,101132.47
2022-08-11T05:03:18.113Z,101127.38
2022-08-11T05:06:09.748Z,101134.31
2022-08-11T05:09:14.951Z,101142.16
2022-08-11T05:12:01.971Z,101135.56
2022-08-11T05:15:04.151Z,101140.38
2022-08-11T05:18:17.804Z,101142.59
2022-08-11T05:21:08.725Z,101132.69
2022-08-11T05:23:58.390Z,101137.69
2022-08-11T05:26:49.363Z,101141.28
2022-08-11T05:30:05.754Z,101147.41
2022-08-11T05:33:01.713Z,101135.34
2022-08-11T05:36:00.168Z,101139.81
2022-08-11T05:38:52.066Z,101145.56
2022-08-11T05:41:40.417Z,101142.84
2022-08-11T05:44:26.183Z,101141.91
2022-08-11T05:47:12.905Z,101140.31
2022-08-11T05:49:59.884Z,101140.63
2022-08-11T05:52:49.223Z,101141.28
2022-08-11T05:56:02.330Z,101148.03
2022-08-11T05:58:41.175Z,101141.63
2022-08-11T06:01:09.410Z,101153.19
2022-08-11T06:03:58.298Z,101157.50
2022-08-11T06:06:28.195Z,101155.13
2022-08-11T06:08:57.174Z,101146.59
2022-08-11T06:11:43.516Z,101155.31
2022-08-11T06:14:12.679Z,101158.69
2022-08-11T06:16:42.168Z,101157.56
2022-08-11T06:19:10.580Z,101160.13
2022-08-11T06:21:38.239Z,101151.16
2022-08-11T06:24:12.631Z,101152.78
2022-08-11T06:27:01.751Z,101158.94
2022-08-11T06:29:37.784Z,101157.44
2022-08-11T06:32:16.671Z,101164.94
2022-08-11T06:35:17.732Z,101162.25
2022-08-11T06:38:05.077Z,101160.81
2022-08-11T06:41:11.143Z,101163.88
2022-08-11T06:44:06.749Z,101165.00
2022-08-11T06:46:39.099Z,101158.72
2022-08-11T06:49:28.230Z,101158.38
2022-08-11T06:52:00.698Z,101153.09
2022-08-11T06:54:41.492Z,101154.22
2022-08-11T06:57:34.475Z,101155.34
2022-08-11T07:00:20.260Z,101147.63
2022-08-11T07:02:57.527Z,101155.81
2022-08-11T07:06:01.843Z,101148.28
2022-08-11T07:09:22.506Z,101153.97
2022-08-11T07:12:18.940Z,101149.34
2022-08-11T07:15:16.010Z,101148.00
2022-08-11T07:17:50.072Z,101154.69
2022-08-11T07:20:36.660Z,101148.59
2022-08-11T07:23:27.357Z,101146.31
2022-08-11T07:26:15.370Z,101150.69
2022-08-11T07:29:00.796Z,101145.25
2022-08-11T07:32:09.324Z,101137.81
2022-08-11T07:34:40.543Z,101137.47
2022-08-11T07:37:20.429Z,101132.47
2022-08-11T07:39:49.362Z,101139.53
2022-08-11T07:42:22.040Z,101134.38
2022-08-11T07:45:07.814Z,101132.09
2022-08-11T07:47:55.482Z,101132.72
2022-08-11T07:50:41.401Z,101136.41
2022-08-11T07:53:08.743Z,101131.66
2022-08-11T07:55:51.000Z,101128.03
2022-08-11T07:58:45.205Z,101131.59
2022-08-11T08:01:45.226Z,101134.38
2022-08-11T08:04:34.568Z,101137.03
2022-08-11T08:07:22.417Z,101135.47
2022-08-11T08:10:08.818Z,101137.81
2022-08-11T08:12:55.101Z,101134.25
2022-08-11T08:15:41.509Z,101133.47
2022-08-11T08:18:25.974Z,101137.47
2022-08-11T08:20:56.850Z,101135.34
2022-08-11T08:23:35.505Z,101133.53
2022-08-11T08:26:26.318Z,101128.34
2022-08-11T08:28:55.326Z,101136.78
2022-08-11T08:31:23.229Z,101130.97
2022-08-11T08:33:50.815Z,101127.38
2022-08-11T08:36:20.050Z,101123.81
2022-08-11T08:38:48.117Z,101121.69
2022-08-11T08:41:20.128Z,101110.69
2022-08-11T08:43:52.450Z,101117.03
2022-08-11T08:46:22.234Z,101111.09
2022-08-11T08:48:49.778Z,101113.69
2022-08-11T08:51:58.611Z,101105.88
2022-08-11T08:54:30.750Z,101102.03
2022-08-11T08:56:58.183Z,101103.84
2022-08-11T08:59:47.597Z,101095.34
2022-08-11T09:02:14.930Z,101092.44
2022-08-11T09:04:45.579Z,101097.38
2022-08-11T09:07:15.672Z,101093.69
2022-08-11T09:09:50.607Z,101090.16
2022-08-11T09:12:36.599Z,101099.66
2022-08-11T09:15:09.172Z,101100.28
2022-08-11T09:17:40.078Z,101104.97
2022-08-11T09:20:08.570Z,101097.59
2022-08-11T09:23:41.305Z,101089.91
2022-08-11T09:26:04.719Z,101098.72
2022-08-11T09:28:32.497Z,101097.41
2022-08-11T09:31:01.321Z,101094.19
2022-08-11T09:33:29.317Z,101093.25
2022-08-11T09:35:57.361Z,101085.63
2022-08-11T09:38:49.505Z,101091.31
2022-08-11T09:41:17.404Z,101085.75
2022-08-11T09:44:04.669Z,101087.50
2022-08-11T09:46:33.148Z,101077.88
2022-08-11T09:49:02.463Z,101084.69
2022-08-11T09:51:33.448Z,101081.25
2022-08-11T09:54:03.647Z,101072.72
2022-08-11T09:56:50.331Z,101069.88
2022-08-11T09:59:20.665Z,101076.75
2022-08-11T10:01:50.651Z,101072.50
2022-08-11T10:04:32.901Z,101076.75
2022-08-11T10:07:01.920Z,101073.28
2022-08-11T10:09:58.773Z,101065.47
2022-08-11T10:12:32.652Z,101062.28
2022-08-11T10:15:22.801Z,101053.50
2022-08-11T10:18:14.676Z,101056.66
2022-08-11T10:20:42.805Z,101055.31
2022-08-11T10:23:31.604Z,101062.97
2022-08-11T10:26:17.409Z,101060.34
2022-08-11T10:29:10.088Z,101050.28
2022-08-11T10:31:57.874Z,101029.38
2022-08-11T10:34:28.354Z,101032.03
2022-08-11T10:36:58.185Z,101032.84
2022-08-11T10:39:27.176Z,101023.78
2022-08-11T10:42:25.511Z,101020.16
2022-08-11T10:45:01.250Z,101020.19
2022-08-11T10:47:34.995Z,101021.97
2022-08-11T10:50:28.291Z,101012.78
2022-08-11T10:53:16.801Z,101018.13
2022-08-11T10:58:50.948Z,101010.31
2022-08-11T11:01:25.074Z,101008.63
2022-08-11T11:04:00.726Z,100994.75
2022-08-11T11:06:36.030Z,101005.63
2022-08-11T11:09:07.294Z,101003.91
2022-08-11T11:12:15.057Z,100992.16
2022-08-11T11:15:02.136Z,100984.53
2022-08-11T11:18:01.988Z,100977.53
2022-08-11T11:20:37.678Z,100976.47
2022-08-11T11:23:20.832Z,100987.13
2022-08-11T11:26:27.449Z,100977.75
2022-08-11T11:29:03.711Z,100969.53
2022-08-11T11:31:48.551Z,100966.44
2022-08-11T11:34:52.780Z,100958.81
2022-08-11T11:37:23.854Z,100957.41
2022-08-11T11:39:51.218Z,100952.13
2022-08-11T11:42:18.738Z,100954.09
2022-08-11T11:44:47.090Z,100964.66
2022-08-11T11:47:15.692Z,100960.09
2022-08-11T11:49:44.122Z,100951.91
2022-08-11T11:52:21.104Z,100953.88
2022-08-11T11:54:50.309Z,100946.31
2022-08-11T11:57:37.686Z,100933.69
2022-08-11T12:00:33.349Z,100935.72
2022-08-11T12:03:06.900Z,100930.19
2022-08-11T12:05:36.147Z,100928.00
2022-08-11T12:08:13.557Z,100921.00
2022-08-11T12:10:47.752Z,100918.38
2022-08-11T12:13:36.049Z,100917.94
2022-08-11T12:16:34.221Z,100913.31
2022-08-11T12:18:56.911Z,100913.81
2022-08-11T12:21:25.236Z,100905.81
2022-08-11T12:24:10.958Z,100912.09
2022-08-11T12:27:16.550Z,100908.13
2022-08-11T12:29:50.044Z,100910.13
2022-08-11T12:32:21.043Z,100910.59
2022-08-11T12:34:49.491Z,100899.78
2022-08-11T12:37:20.032Z,100896.47
2022-08-11T12:40:15.705Z,100895.88
2022-08-11T12:43:21.659Z,100896.34
2022-08-11T12:45:54.201Z,100887.78
2022-08-11T12:48:59.616Z,100892.47
2022-08-11T12:52:12.551Z,100893.50
2022-08-11T12:55:02.446Z,100884.75
2022-08-11T12:57:53.779Z,100889.97
2022-08-11T13:00:40.008Z,100890.19
2022-08-11T13:03:27.903Z,100878.97
2022-08-11T13:06:00.757Z,100879.97
2022-08-11T13:08:29.749Z,100878.69
2022-08-11T13:11:18.013Z,100875.72
2022-08-11T13:13:53.539Z,100867.97
2022-08-11T13:16:26.605Z,100875.19
2022-08-11T13:18:53.845Z,100873.00
2022-08-11T13:21:22.173Z,100859.63
2022-08-11T13:24:01.540Z,100858.00
2022-08-11T13:26:47.050Z,100855.59
2022-08-11T13:29:25.308Z,100853.88
2022-08-11T13:31:56.147Z,100861.66
2022-08-11T13:34:26.742Z,100855.19
2022-08-11T13:36:57.045Z,100853.06
2022-08-11T13:39:27.012Z,100843.06
2022-08-11T13:41:56.887Z,100846.41
2022-08-11T13:44:27.631Z,100839.91
2022-08-11T13:46:58.783Z,100835.94
2022-08-11T13:49:27.481Z,100833.66
2022-08-11T13:51:56.048Z,100837.56
2022-08-11T13:54:26.120Z,100832.41
2022-08-11T13:56:56.845Z,100812.06
2022-08-11T13:59:30.856Z,100817.19
2022-08-11T14:02:22.252Z,100822.78
2022-08-11T14:04:56.218Z,100815.31
2022-08-11T14:07:26.062Z,100819.38
2022-08-11T14:09:58.206Z,100816.06
2022-08-11T14:12:46.928Z,100803.72
2022-08-11T14:15:20.166Z,100805.16
2022-08-11T14:18:03.325Z,100803.13
2022-08-11T14:20:50.756Z,100793.59
2022-08-11T14:23:19.572Z,100792.22
2022-08-11T14:26:06.029Z,100782.31
2022-08-11T14:28:44.450Z,100785.34
2022-08-11T14:31:14.880Z,100789.03
2022-08-11T14:34:01.073Z,100791.22
2022-08-11T14:36:35.183Z,100788.06
2022-08-11T14:39:12.928Z,100791.66
2022-08-11T14:42:10.802Z,100788.13
2022-08-11T14:45:02.067Z,100779.38
2022-08-11T14:47:32.426Z,100784.75
2022-08-11T14:50:10.437Z,100771.91
2022-08-11T14:52:48.327Z,100774.19
2022-08-11T14:55:41.419Z,100769.66
2022-08-11T14:58:16.393Z,100767.38
2022-08-11T15:00:44.536Z,100764.50
2022-08-11T15:03:14.590Z,100768.50
2022-08-11T15:05:58.321Z,100764.09
2022-08-11T15:08:57.592Z,100749.81
2022-08-11T15:11:48.883Z,100754.66
2022-08-11T15:14:39.965Z,100761.72
2022-08-11T15:17:10.124Z,100758.50
2022-08-11T15:20:00.328Z,100748.53
2022-08-11T15:22:46.378Z,100754.97
2022-08-11T15:25:14.262Z,100748.97
2022-08-11T15:28:03.022Z,100754.59
2022-08-11T15:30:49.204Z,100754.63
2022-08-11T15:33:37.655Z,100748.66
2022-08-11T15:36:26.099Z,100749.06
2022-08-11T15:38:58.000Z,100742.75
2022-08-11T15:41:58.628Z,100745.22
2022-08-11T15:45:02.089Z,100744.47
2022-08-11T15:47:38.101Z,100742.41
2022-08-11T15:50:11.245Z,100738.84
2022-08-11T15:52:47.799Z,100740.47
2022-08-11T15:55:16.100Z,100734.53
2022-08-11T15:58:02.941Z,100734.91
2022-08-11T16:00:48.296Z,100729.44
2022-08-11T16:04:05.833Z,100731.06
2022-08-11T16:06:23.951Z,100731.44
2022-08-11T16:08:52.261Z,100725.91
2022-08-11T16:11:21.409Z,100728.66
2022-08-11T16:14:09.218Z,100721.53
2022-08-11T16:16:39.184Z,100718.41
2022-08-11T16:19:10.529Z,100721.31
2022-08-11T16:21:40.349Z,100727.25
2022-08-11T16:26:30.544Z,100719.31
2022-08-11T16:27:08.819Z,100719.31
2022-08-11T16:29:43.689Z,100714.59
2022-08-11T16:32:20.417Z,100715.41
2022-08-11T16:35:19.967Z,100708.28
2022-08-11T16:38:06.125Z,100705.13
2022-08-11T16:40:34.456Z,100712.63
2022-08-11T16:43:23.871Z,100713.00
2022-08-11T16:46:11.546Z,100716.56
2022-08-11T16:48:41.393Z,100716.56
2022-08-11T16:51:11.263Z,100715.38
2022-08-11T16:54:00.167Z,100712.94
2022-08-11T16:56:52.470Z,100708.97
2022-08-11T16:59:34.000Z,100709.75
2022-08-11T17:02:08.426Z,100698.66
2022-08-11T17:05:09.981Z,100701.00
2022-08-11T17:08:01.165Z,100700.22
2022-08-11T17:11:04.287Z,100707.28
2022-08-11T17:13:44.629Z,100697.81
2022-08-11T17:16:14.743Z,100705.72
2022-08-11T17:18:48.593Z,100698.59
2022-08-11T17:21:20.108Z,100695.44
2022-08-11T17:24:14.514Z,100695.81
2022-08-11T17:26:56.817Z,100693.03
2022-08-11T17:29:53.686Z,100694.59
2022-08-11T17:33:01.471Z,100687.41
2022-08-11T17:35:38.810Z,100692.88
2022-08-11T17:38:14.385Z,100690.09
2022-08-11T17:41:36.234Z,100690.50
2022-08-11T17:44:25.663Z,100694.06
2022-08-11T17:47:12.548Z,100695.22
2022-08-11T17:49:40.504Z,100696.34
2022-08-11T17:52:26.269Z,100699.13
2022-08-11T17:55:14.056Z,100699.84
2022-08-11T17:58:01.374Z,100691.09
2022-08-11T18:00:29.718Z,100700.56
2022-08-11T18:03:17.447Z,100694.22
2022-08-11T18:05:45.870Z,100707.16
2022-08-11T18:08:33.196Z,100708.34
2022-08-11T18:12:06.810Z,100713.09
2022-08-11T18:14:28.400Z,100717.75
2022-08-11T18:17:14.978Z,100718.09
2022-08-11T18:20:00.477Z,100718.50
2022-08-11T18:22:52.474Z,100732.31
2022-08-11T18:25:57.356Z,100727.94
2022-08-11T18:28:45.115Z,100734.91
2022-08-11T18:31:33.898Z,100728.09
2022-08-11T18:34:28.713Z,100737.13
2022-08-11T18:37:29.442Z,100739.44
2022-08-11T18:40:19.023Z,100740.53
2022-08-11T18:43:06.567Z,100743.22
2022-08-11T18:46:07.193Z,100744.00
2022-08-11T18:49:00.022Z,100735.19
2022-08-11T18:51:46.827Z,100739.06
2022-08-11T18:54:33.574Z,100737.78
2022-08-11T18:57:22.252Z,100738.56
2022-08-11T19:00:11.123Z,100738.06
2022-08-11T19:02:58.672Z,100734.47
2022-08-11T19:06:32.508Z,100736.38
2022-08-11T19:09:00.143Z,100736.25
2022-08-11T19:11:47.967Z,100744.44
2022-08-11T19:14:36.505Z,100748.28
2022-08-11T19:17:44.465Z,100750.19
2022-08-11T19:20:33.472Z,100746.59
2022-08-11T19:23:21.497Z,100757.59
2022-08-11T19:26:08.334Z,100750.06
2022-08-11T19:28:57.884Z,100749.25
2022-08-11T19:31:45.566Z,100756.63
2022-08-11T19:34:42.040Z,100758.53
2022-08-11T19:37:29.297Z,100754.88
2022-08-11T19:40:20.000Z,100760.75
2022-08-11T19:43:11.257Z,100753.53
2022-08-11T19:46:11.602Z,100755.09
2022-08-11T19:48:58.949Z,100749.16
2022-08-11T19:51:45.462Z,100758.16
2022-08-11T19:54:32.289Z,100756.06
2022-08-11T19:57:19.045Z,100761.53
2022-08-11T20:00:05.378Z,100759.47
2022-08-11T20:02:50.836Z,100758.59
2022-08-11T20:05:36.147Z,100761.22
2022-08-11T20:08:22.431Z,100759.97
2022-08-11T20:11:09.289Z,100763.84
2022-08-11T20:13:59.123Z,100767.63
2022-08-11T20:16:45.264Z,100765.91
2022-08-11T20:19:56.393Z,100760.41
2022-08-11T20:22:38.476Z,100760.31
2022-08-11T20:25:25.263Z,100763.38
2022-08-11T20:28:12.332Z,100769.56
2022-08-11T20:30:59.482Z,100767.53
2022-08-11T20:33:44.597Z,100772.16
2022-08-11T20:36:34.779Z,100769.38
2022-08-11T20:39:21.527Z,100771.16
2022-08-11T20:42:08.268Z,100773.06
2022-08-11T20:44:57.695Z,100778.81
2022-08-11T20:47:59.715Z,100781.41
2022-08-11T20:50:47.369Z,100782.84
2022-08-11T20:53:39.227Z,100775.69
2022-08-11T20:56:28.866Z,100776.34
2022-08-11T20:59:21.747Z,100780.19
2022-08-11T21:02:10.528Z,100780.09
2022-08-11T21:05:00.679Z,100780.81
2022-08-11T21:07:56.937Z,100786.59
2022-08-11T21:10:51.660Z,100781.44
2022-08-11T21:13:42.076Z,100777.03
2022-08-11T21:16:31.931Z,100776.59
2022-08-11T21:19:55.076Z,100775.09
2022-08-11T21:22:59.690Z,100779.72
2022-08-11T21:26:02.033Z,100786.16
2022-08-11T21:28:49.014Z,100786.16
2022-08-11T21:31:35.628Z,100786.16
2022-08-11T21:34:23.230Z,100787.19
2022-08-11T21:37:11.506Z,100787.81
2022-08-11T21:39:58.875Z,100780.75
2022-08-11T21:42:46.446Z,100782.31
2022-08-11T21:45:32.848Z,100791.72
2022-08-11T21:48:20.280Z,100777.56
2022-08-11T21:51:05.488Z,100779.91
2022-08-11T21:53:51.920Z,100780.28
2022-08-11T21:56:38.222Z,100779.66
2022-08-11T21:59:24.844Z,100782.22
2022-08-11T22:02:13.030Z,100789.09
2022-08-11T22:05:00.568Z,100779.97
2022-08-11T22:07:47.320Z,100782.28
2022-08-11T22:10:42.238Z,100781.38
2022-08-11T22:13:30.565Z,100784.41
2022-08-11T22:16:17.937Z,100781.56
2022-08-11T22:19:05.996Z,100788.91
2022-08-11T22:22:02.791Z,100798.19
2022-08-11T22:24:52.013Z,100806.91
2022-08-11T22:27:39.876Z,100803.00
2022-08-11T22:30:27.662Z,100800.28
2022-08-11T22:33:15.823Z,100798.25
2022-08-11T22:36:02.652Z,100808.59
2022-08-11T22:38:50.048Z,100804.22
2022-08-11T22:41:35.342Z,100806.78
2022-08-11T22:44:21.595Z,100805.84
2022-08-11T22:47:09.338Z,100804.56
2022-08-11T22:49:58.549Z,100808.28
2022-08-11T22:52:47.019Z,100797.88
2022-08-11T22:55:34.793Z,100800.78
2022-08-11T22:58:24.747Z,100800.47
2022-08-11T23:01:11.043Z,100795.22
2022-08-11T23:03:56.767Z,100800.09
2022-08-11T23:06:43.316Z,100799.09
2022-08-11T23:09:28.954Z,100796.38
2022-08-11T23:12:15.171Z,100798.97
2022-08-11T23:15:01.492Z,100805.03
2022-08-11T23:17:46.736Z,100810.50
2022-08-11T23:20:37.152Z,100809.25
2022-08-11T23:23:27.224Z,100796.13
2022-08-11T23:26:14.047Z,100800.94
2022-08-11T23:29:04.548Z,100802.53
2022-08-11T23:31:53.685Z,100807.66
2022-08-11T23:35:03.670Z,100799.09
2022-08-11T23:37:47.915Z,100805.72
2022-08-11T23:40:33.119Z,100804.13
2022-08-11T23:43:19.267Z,100802.53
2022-08-11T23:46:04.547Z,100799.44
2022-08-11T23:48:50.176Z,100798.66
2022-08-11T23:51:41.227Z,100800.22
2022-08-11T23:54:31.578Z,100794.31
2022-08-11T23:57:22.089Z,100793.38
